Time;durP1;ratioP1;P1;durP2;ratioP2;P2;SDS_P1;SDS_P2;PMS_P1;PMS_P2;Temp;Humidity;BMP_temperature;BMP_pressure;BME280_temperature;BME280_humidity;BME280_pressure;Samples;Min_cycle;Max_cycle;Signal;HPM_P1;HPM_P2
2022/12/30 00:00:50;;;;;;;8.07;3.20;;;8.50;99.90;;;;;;5044309;28;20193;-37
2022/12/30 00:03:15;;;;;;;7.40;2.50;;;8.50;99.90;;;;;;5047120;28;20231;-39
2022/12/30 00:05:41;;;;;;;9.10;2.90;;;8.40;99.90;;;;;;5048749;28;20313;-38
2022/12/30 00:08:45;;;;;;;5.13;2.50;;;8.60;99.90;;;;;;5051084;28;20637;-38
2022/12/30 00:10:52;;;;;;;11.20;4.00;;;8.30;99.90;;;;;;5050453;28;20468;-36
2022/12/30 00:35:17;;;;;;;5.43;1.80;;;8.30;99.90;;;;;;5050039;28;20416;-39
2022/12/30 00:37:44;;;;;;;6.33;2.60;;;8.30;99.90;;;;;;5048510;28;20461;-41
2022/12/30 00:40:10;;;;;;;11.60;3.10;;;8.20;99.90;;;;;;5044582;28;20840;-38
2022/12/30 00:45:21;;;;;;;6.07;2.30;;;8.30;99.90;;;;;;5049450;28;20459;-38
2022/12/30 00:47:47;;;;;;;3.80;1.80;;;8.30;99.90;;;;;;5044129;28;20523;-41
2022/12/30 00:58:27;;;;;;;8.07;2.40;;;8.20;99.90;;;;;;5030134;28;20417;-41
2022/12/30 01:00:54;;;;;;;9.30;2.90;;;8.20;99.90;;;;;;5030309;28;20441;-36
2022/12/30 01:03:19;;;;;;;12.07;2.70;;;8.10;99.90;;;;;;5029093;28;20994;-39
2022/12/30 01:05:45;;;;;;;6.03;2.90;;;8.30;99.90;;;;;;5029864;28;20464;-36
2022/12/30 01:08:11;;;;;;;8.30;2.03;;;8.30;99.90;;;;;;5035885;28;20210;-38
2022/12/30 01:10:39;;;;;;;10.37;2.27;;;8.20;99.90;;;;;;5049916;28;20729;-39
2022/12/30 01:13:05;;;;;;;8.30;2.10;;;8.20;99.90;;;;;;5048983;28;20181;-40
2022/12/30 01:15:30;;;;;;;8.13;2.20;;;8.20;99.90;;;;;;5049531;28;20503;-39
2022/12/30 01:17:56;;;;;;;11.17;2.33;;;8.20;99.90;;;;;;5049239;28;20511;-40
2022/12/30 01:20:22;;;;;;;9.20;2.63;;;8.10;99.90;;;;;;5049042;28;20205;-38
2022/12/30 01:22:48;;;;;;;10.53;2.73;;;8.20;99.90;;;;;;5048172;28;20670;-39
2022/12/30 01:25:13;;;;;;;7.53;2.30;;;8.20;99.90;;;;;;5048980;28;20772;-40
2022/12/30 01:27:39;;;;;;;5.40;2.13;;;8.20;99.90;;;;;;5049628;28;20209;-39
2022/12/30 01:30:05;;;;;;;9.40;2.30;;;8.20;99.90;;;;;;5049035;28;20389;-39
2022/12/30 01:32:31;;;;;;;9.60;2.50;;;8.20;99.90;;;;;;5049378;28;20564;-38
2022/12/30 01:34:57;;;;;;;7.40;2.90;;;8.20;99.90;;;;;;5047426;28;20446;-38
2022/12/30 01:37:24;;;;;;;10.73;2.30;;;8.40;99.90;;;;;;5048662;28;20260;-38
2022/12/30 01:39:49;;;;;;;13.17;2.70;;;8.30;99.90;;;;;;5048322;28;20439;-41
2022/12/30 01:42:20;;;;;;;6.07;2.70;;;8.30;99.90;;;;;;5048706;28;20422;-38
2022/12/30 01:44:48;;;;;;;5.80;2.87;;;8.40;99.90;;;;;;5048723;28;20521;-35
2022/12/30 01:47:43;;;;;;;7.30;2.23;;;8.00;99.90;;;;;;5048830;28;20413;-35
2022/12/30 01:50:12;;;;;;;6.93;2.20;;;8.20;99.90;;;;;;5049150;28;20419;-37
2022/12/30 01:52:43;;;;;;;10.53;3.33;;;8.20;99.90;;;;;;5048551;28;20412;-40
2022/12/30 01:55:14;;;;;;;7.53;2.30;;;8.10;99.90;;;;;;5047773;28;20652;-40
2022/12/30 01:57:43;;;;;;;14.80;3.00;;;8.10;99.90;;;;;;5048992;28;20416;-41
2022/12/30 02:00:10;;;;;;;8.23;2.67;;;8.10;99.90;;;;;;5048777;28;20915;-41
2022/12/30 02:02:35;;;;;;;9.27;2.50;;;8.10;99.90;;;;;;5029911;28;20835;-37
2022/12/30 02:05:03;;;;;;;8.00;2.73;;;8.20;99.90;;;;;;5041005;28;20568;-35
2022/12/30 02:07:34;;;;;;;15.27;2.47;;;8.10;99.90;;;;;;5048934;28;20239;-36
2022/12/30 02:10:00;;;;;;;7.73;2.40;;;8.30;99.90;;;;;;5048435;28;20514;-40
2022/12/30 02:12:25;;;;;;;7.37;2.40;;;8.20;99.90;;;;;;5047324;28;20515;-35
2022/12/30 02:14:53;;;;;;;9.53;2.77;;;8.00;99.90;;;;;;5047214;28;20911;-35
2022/12/30 02:17:21;;;;;;;6.03;2.40;;;8.10;99.90;;;;;;5048538;28;20174;-38
2022/12/30 02:19:49;;;;;;;8.50;2.53;;;8.00;99.90;;;;;;5048569;28;20412;-38
2022/12/30 02:22:28;;;;;;;7.57;4.07;;;8.00;99.90;;;;;;5048574;28;20448;-38
2022/12/30 02:25:10;;;;;;;9.83;2.27;;;8.00;99.90;;;;;;5047627;28;20686;-39
2022/12/30 02:28:13;;;;;;;8.40;2.60;;;8.10;99.90;;;;;;5047888;28;20427;-41
2022/12/30 02:31:02;;;;;;;10.83;2.40;;;8.00;99.90;;;;;;5048844;28;20415;-36
2022/12/30 02:33:47;;;;;;;4.60;1.90;;;8.10;99.90;;;;;;5047116;28;20464;-41
2022/12/30 02:36:13;;;;;;;6.33;1.97;;;8.10;99.90;;;;;;5047398;28;20435;-39
2022/12/30 02:38:42;;;;;;;10.77;2.17;;;8.00;99.90;;;;;;5047594;28;20921;-41
2022/12/30 02:47:15;;;;;;;6.50;2.00;;;8.00;99.90;;;;;;5048153;28;20433;-38
2022/12/30 02:49:44;;;;;;;6.17;2.60;;;8.20;99.90;;;;;;5047579;28;20412;-38
2022/12/30 02:52:14;;;;;;;5.33;1.80;;;8.20;99.90;;;;;;5045118;28;20890;-38
2022/12/30 02:54:46;;;;;;;5.73;2.30;;;7.90;99.90;;;;;;5041444;28;20934;-34
2022/12/30 02:57:32;;;;;;;7.00;2.20;;;8.00;99.90;;;;;;5048168;28;20499;-36
2022/12/30 03:06:36;;;;;;;8.23;2.10;;;8.10;99.90;;;;;;5047644;28;20896;-39
2022/12/30 03:11:12;;;;;;;7.77;2.10;;;7.90;99.90;;;;;;5048024;28;20844;-38
2022/12/30 03:12:35;;;;;;;8.47;2.37;;;8.10;99.90;;;;;;5047288;28;20412;-39
2022/12/30 03:15:06;;;;;;;9.07;3.53;;;8.00;99.90;;;;;;5043391;28;20435;-38
2022/12/30 03:17:38;;;;;;;7.57;2.13;;;7.90;99.90;;;;;;5044712;28;20414;-41
2022/12/30 03:20:10;;;;;;;5.97;1.73;;;7.90;99.90;;;;;;5048133;28;20503;-41
2022/12/30 03:28:12;;;;;;;8.97;2.13;;;8.00;99.90;;;;;;5041798;28;20587;-40
2022/12/30 03:30:45;;;;;;;6.87;2.20;;;8.00;99.90;;;;;;5047401;28;20462;-35
2022/12/30 03:33:12;;;;;;;4.83;1.60;;;7.90;99.90;;;;;;5047166;28;20420;-39
2022/12/30 03:35:44;;;;;;;8.63;2.33;;;8.00;99.90;;;;;;5047509;28;20427;-40
2022/12/30 03:38:11;;;;;;;6.23;2.47;;;8.00;99.90;;;;;;5047636;28;20444;-34
2022/12/30 03:40:42;;;;;;;6.37;2.60;;;7.90;99.90;;;;;;5048384;28;20431;-41
2022/12/30 03:43:10;;;;;;;6.70;2.10;;;7.80;99.90;;;;;;5051123;28;20490;-38
2022/12/30 03:45:36;;;;;;;8.00;2.47;;;7.90;99.90;;;;;;5051103;28;20889;-38
2022/12/30 03:48:02;;;;;;;10.00;3.63;;;7.80;99.90;;;;;;5051330;28;20508;-39
2022/12/30 03:50:27;;;;;;;8.20;2.20;;;7.80;99.90;;;;;;5051305;28;20831;-40
2022/12/30 03:52:53;;;;;;;8.73;2.87;;;7.80;99.90;;;;;;5049210;28;20190;-40
2022/12/30 03:55:19;;;;;;;6.60;2.33;;;8.10;99.90;;;;;;5045780;28;20504;-37
2022/12/30 03:57:44;;;;;;;6.00;2.27;;;7.90;99.90;;;;;;5049703;28;20288;-38
2022/12/30 04:00:11;;;;;;;5.73;2.20;;;7.90;99.90;;;;;;5050959;28;20185;-38
2022/12/30 04:02:38;;;;;;;6.00;2.10;;;7.70;99.90;;;;;;5050985;28;20255;-41
2022/12/30 04:05:08;;;;;;;8.90;1.90;;;7.90;99.90;;;;;;5049900;28;20861;-41
2022/12/30 04:07:34;;;;;;;5.00;2.17;;;7.90;99.90;;;;;;5051468;28;20423;-39
2022/12/30 04:10:01;;;;;;;6.77;2.50;;;7.80;99.90;;;;;;5049587;28;20466;-40
2022/12/30 04:12:26;;;;;;;9.27;2.10;;;7.80;99.90;;;;;;5047551;28;20810;-38
2022/12/30 04:14:52;;;;;;;9.53;2.13;;;7.90;99.90;;;;;;5050005;28;20428;-39
2022/12/30 04:17:17;;;;;;;8.27;2.70;;;7.80;99.90;;;;;;5050781;28;20174;-41
2022/12/30 04:19:43;;;;;;;6.23;2.57;;;7.90;99.90;;;;;;5050170;28;20281;-36
2022/12/30 04:22:09;;;;;;;5.40;2.13;;;8.00;99.90;;;;;;5050907;28;20196;-36
2022/12/30 04:24:34;;;;;;;6.00;2.17;;;7.90;99.90;;;;;;5050138;28;20189;-38
2022/12/30 04:27:00;;;;;;;6.53;2.60;;;7.90;99.90;;;;;;5050374;28;20651;-38
2022/12/30 04:29:25;;;;;;;5.17;1.90;;;8.00;99.90;;;;;;5050679;28;20695;-36
2022/12/30 04:31:51;;;;;;;10.30;2.23;;;7.90;99.90;;;;;;5048885;28;20209;-35
2022/12/30 04:34:17;;;;;;;7.50;1.90;;;8.00;99.90;;;;;;5049592;28;20194;-34
2022/12/30 04:36:43;;;;;;;7.10;2.20;;;8.00;99.90;;;;;;5050332;28;20189;-39
2022/12/30 04:39:09;;;;;;;6.00;2.10;;;7.90;99.90;;;;;;5050407;28;20189;-40
2022/12/30 04:41:35;;;;;;;8.10;2.30;;;7.90;99.90;;;;;;5047076;28;20473;-40
2022/12/30 04:44:02;;;;;;;8.03;2.10;;;7.90;99.90;;;;;;5049334;28;20420;-38
2022/12/30 04:46:28;;;;;;;9.23;2.00;;;8.00;99.90;;;;;;5049009;28;20217;-38
2022/12/30 04:48:54;;;;;;;7.20;1.93;;;7.90;99.90;;;;;;5050026;28;20447;-38
2022/12/30 04:51:20;;;;;;;7.40;2.27;;;7.90;99.90;;;;;;5050370;28;20424;-40
2022/12/30 04:53:45;;;;;;;8.10;1.90;;;7.80;99.90;;;;;;5048290;28;20417;-41
2022/12/30 04:56:12;;;;;;;9.20;2.37;;;7.70;99.90;;;;;;5050564;28;20428;-38
2022/12/30 04:58:37;;;;;;;5.33;2.07;;;7.80;99.90;;;;;;5050040;28;20194;-41
2022/12/30 05:01:03;;;;;;;3.80;2.00;;;7.60;99.90;;;;;;5049874;28;20438;-41
2022/12/30 05:03:29;;;;;;;7.00;2.00;;;7.70;99.90;;;;;;5049752;28;20416;-37
2022/12/30 05:05:55;;;;;;;6.43;2.37;;;7.80;99.90;;;;;;5049327;28;20218;-39
2022/12/30 05:08:20;;;;;;;5.13;1.77;;;7.80;99.90;;;;;;5050065;28;20200;-35
2022/12/30 05:10:46;;;;;;;11.03;2.67;;;7.60;99.90;;;;;;5049521;28;20182;-41
2022/12/30 05:13:12;;;;;;;6.70;2.10;;;7.60;99.90;;;;;;5046216;28;20376;-40
2022/12/30 05:15:37;;;;;;;10.07;2.40;;;7.70;99.90;;;;;;5047079;28;20243;-38
2022/12/30 05:18:03;;;;;;;6.67;1.63;;;7.80;99.90;;;;;;5049306;28;20194;-38
2022/12/30 05:20:29;;;;;;;7.10;2.30;;;7.80;99.90;;;;;;5049443;28;20739;-41
2022/12/30 05:22:54;;;;;;;8.67;2.30;;;7.60;99.90;;;;;;5048997;28;20186;-38
2022/12/30 05:28:04;;;;;;;7.40;2.20;;;7.50;99.90;;;;;;5049287;28;20178;-37
2022/12/30 05:30:30;;;;;;;7.60;3.30;;;7.70;99.90;;;;;;5049136;28;20494;-37
2022/12/30 05:32:56;;;;;;;7.30;2.10;;;7.80;99.90;;;;;;5049116;28;20570;-38
2022/12/30 05:35:21;;;;;;;8.80;2.37;;;7.60;99.90;;;;;;5047514;28;20201;-39
2022/12/30 05:37:47;;;;;;;8.27;2.50;;;7.60;99.90;;;;;;5049520;28;20648;-38
2022/12/30 05:40:13;;;;;;;6.97;2.00;;;7.60;99.90;;;;;;5047478;28;20423;-38
2022/12/30 05:42:39;;;;;;;7.37;2.40;;;7.70;99.90;;;;;;5049120;28;20725;-39
2022/12/30 05:45:05;;;;;;;4.00;2.10;;;7.50;99.90;;;;;;5048026;28;20699;-40
2022/12/30 05:47:31;;;;;;;7.80;2.50;;;7.70;99.90;;;;;;5048098;28;20287;-37
2022/12/30 05:49:57;;;;;;;4.37;1.77;;;7.50;99.90;;;;;;5049032;28;20444;-36
2022/12/30 05:52:22;;;;;;;4.63;1.70;;;7.50;99.90;;;;;;5048860;28;20202;-38
2022/12/30 05:54:48;;;;;;;5.57;2.23;;;7.50;99.90;;;;;;5047475;28;20259;-41
2022/12/30 05:57:14;;;;;;;6.33;2.23;;;7.60;99.90;;;;;;5048951;28;20420;-38
2022/12/30 05:59:40;;;;;;;3.83;1.90;;;7.50;99.90;;;;;;5048784;28;20192;-38
2022/12/30 06:02:06;;;;;;;4.47;2.10;;;7.50;99.90;;;;;;5048289;28;20217;-36
2022/12/30 06:04:31;;;;;;;7.07;1.90;;;7.50;99.90;;;;;;5048092;28;20236;-38
2022/12/30 06:06:57;;;;;;;7.70;2.40;;;7.60;99.90;;;;;;5047483;28;20875;-40
2022/12/30 06:09:23;;;;;;;4.57;1.83;;;7.60;99.90;;;;;;5048699;28;20548;-39
2022/12/30 06:11:48;;;;;;;7.90;2.10;;;7.60;99.90;;;;;;5044231;28;20489;-37
2022/12/30 06:14:15;;;;;;;6.80;2.40;;;7.60;99.90;;;;;;5045927;28;20201;-38
2022/12/30 06:16:41;;;;;;;6.07;2.40;;;7.70;99.90;;;;;;5049136;28;20206;-36
2022/12/30 06:19:07;;;;;;;6.30;2.40;;;7.70;99.90;;;;;;5048174;28;20416;-37
2022/12/30 06:21:34;;;;;;;9.47;1.97;;;7.60;99.90;;;;;;5049067;28;20430;-32
2022/12/30 06:23:59;;;;;;;4.53;2.90;;;7.60;99.90;;;;;;5047603;28;20231;-40
2022/12/30 06:26:26;;;;;;;5.13;1.97;;;7.70;99.90;;;;;;5048500;28;20950;-38
2022/12/30 06:28:51;;;;;;;7.17;2.30;;;7.60;99.90;;;;;;5035092;28;20652;-37
2022/12/30 06:31:17;;;;;;;4.23;1.80;;;7.50;99.90;;;;;;5028367;28;20475;-37
2022/12/30 06:33:43;;;;;;;6.27;2.63;;;7.60;99.90;;;;;;5027890;28;20214;-39
2022/12/30 06:36:10;;;;;;;5.20;1.70;;;7.50;99.90;;;;;;5027989;28;20193;-37
2022/12/30 06:38:36;;;;;;;7.33;2.07;;;7.50;99.90;;;;;;5030713;28;20284;-38
2022/12/30 06:41:02;;;;;;;4.33;1.83;;;7.70;99.90;;;;;;5045033;28;21033;-40
2022/12/30 06:43:28;;;;;;;5.67;1.80;;;7.40;99.90;;;;;;5046016;28;20428;-38
2022/12/30 06:45:54;;;;;;;5.43;2.17;;;7.60;99.90;;;;;;5048189;28;20217;-40
2022/12/30 06:48:20;;;;;;;5.47;1.97;;;7.40;99.90;;;;;;5047996;28;20422;-38
2022/12/30 06:50:46;;;;;;;5.07;1.83;;;7.40;99.90;;;;;;5047929;28;20507;-37
2022/12/30 06:53:12;;;;;;;7.00;2.30;;;7.30;99.90;;;;;;5047229;28;20185;-37
2022/12/30 06:55:37;;;;;;;8.13;2.10;;;7.30;99.90;;;;;;5047031;28;20495;-37
2022/12/30 06:58:04;;;;;;;3.60;1.80;;;7.30;99.90;;;;;;5047664;28;20515;-41
2022/12/30 07:00:31;;;;;;;4.80;1.80;;;7.50;99.90;;;;;;5047261;28;20209;-36
2022/12/30 07:02:56;;;;;;;5.37;1.80;;;7.20;99.90;;;;;;5044727;28;20783;-38
2022/12/30 07:05:22;;;;;;;4.20;3.40;;;7.30;99.90;;;;;;5047044;28;20468;-38
2022/12/30 07:07:47;;;;;;;6.80;2.00;;;7.30;99.90;;;;;;5047906;28;20264;-35
2022/12/30 07:10:13;;;;;;;8.33;2.23;;;7.30;99.90;;;;;;5047545;28;20189;-37
2022/12/30 07:12:39;;;;;;;3.87;1.87;;;7.40;99.90;;;;;;5040782;28;20192;-37
2022/12/30 07:15:06;;;;;;;8.10;1.93;;;7.30;99.90;;;;;;5048570;28;20217;-38
2022/12/30 07:17:31;;;;;;;5.10;1.87;;;7.30;99.90;;;;;;5043127;28;20205;-37
2022/12/30 07:19:57;;;;;;;9.03;2.10;;;7.50;99.90;;;;;;5040528;28;20432;-40
2022/12/30 07:22:23;;;;;;;5.43;2.13;;;7.40;99.90;;;;;;5033792;28;20205;-40
2022/12/30 07:24:48;;;;;;;4.90;1.60;;;7.20;99.90;;;;;;5040225;28;20615;-38
2022/12/30 07:27:14;;;;;;;6.80;2.07;;;7.30;99.90;;;;;;5048669;28;20302;-38
2022/12/30 07:29:40;;;;;;;4.30;1.77;;;7.40;99.90;;;;;;5051482;28;20229;-39
2022/12/30 07:32:06;;;;;;;5.30;1.87;;;7.40;99.90;;;;;;5051563;28;20190;-38
2022/12/30 07:34:34;;;;;;;5.30;2.50;;;7.40;99.90;;;;;;5050767;28;20189;-39
2022/12/30 07:37:00;;;;;;;3.23;1.40;;;7.50;99.90;;;;;;5051700;28;20519;-34
2022/12/30 07:39:26;;;;;;;4.63;1.97;;;7.20;99.90;;;;;;5045730;28;20467;-35
2022/12/30 07:41:52;;;;;;;6.00;1.97;;;7.20;99.90;;;;;;5050134;28;20772;-40
2022/12/30 07:44:18;;;;;;;4.50;1.33;;;7.50;99.90;;;;;;5050882;28;20428;-38
2022/12/30 07:46:43;;;;;;;4.20;1.83;;;7.50;99.90;;;;;;5051487;28;20218;-36
2022/12/30 07:49:09;;;;;;;4.47;1.93;;;7.40;99.90;;;;;;5041809;28;20729;-39
2022/12/30 07:51:35;;;;;;;4.63;1.57;;;7.50;99.90;;;;;;5042757;28;20185;-36
2022/12/30 07:54:00;;;;;;;5.13;1.80;;;7.60;99.90;;;;;;5038517;28;20549;-38
2022/12/30 07:56:26;;;;;;;4.83;1.87;;;7.40;99.90;;;;;;5047485;28;20193;-38
2022/12/30 07:58:55;;;;;;;7.13;1.70;;;7.50;99.90;;;;;;5051483;28;20189;-37
2022/12/30 08:01:21;;;;;;;5.70;2.13;;;7.50;99.90;;;;;;5045518;28;20529;-34
2022/12/30 08:03:47;;;;;;;4.93;1.90;;;7.60;99.90;;;;;;5050415;28;20466;-39
2022/12/30 08:06:14;;;;;;;6.17;2.60;;;7.40;99.90;;;;;;5050492;28;20304;-37
2022/12/30 08:08:41;;;;;;;5.80;1.53;;;7.40;99.90;;;;;;5051724;28;20182;-39
2022/12/30 08:11:08;;;;;;;2.67;1.30;;;7.50;99.90;;;;;;5050711;28;20416;-41
2022/12/30 08:13:36;;;;;;;5.90;2.13;;;7.50;99.90;;;;;;5050101;28;20414;-39
2022/12/30 08:16:11;;;;;;;4.47;1.57;;;7.50;99.90;;;;;;5051164;28;20875;-35
2022/12/30 08:18:37;;;;;;;3.80;1.30;;;7.60;99.90;;;;;;5050478;28;20830;-39
2022/12/30 08:21:08;;;;;;;3.80;1.43;;;7.60;99.90;;;;;;5046862;28;20433;-36
2022/12/30 08:23:34;;;;;;;3.47;1.77;;;7.60;99.90;;;;;;5046328;28;20483;-37
2022/12/30 08:26:11;;;;;;;3.90;1.40;;;7.60;99.90;;;;;;5050061;28;20460;-40
2022/12/30 08:28:37;;;;;;;7.30;1.77;;;7.50;99.90;;;;;;5050573;28;20419;-37
2022/12/30 08:31:09;;;;;;;3.67;1.50;;;7.60;99.90;;;;;;5049043;28;20424;-35
2022/12/30 08:33:35;;;;;;;2.90;1.63;;;7.70;99.90;;;;;;5045266;28;20723;-38
2022/12/30 08:36:07;;;;;;;5.30;2.07;;;7.70;99.90;;;;;;5043769;28;20958;-39
2022/12/30 08:38:37;;;;;;;4.77;1.60;;;7.60;99.90;;;;;;5050234;28;20200;-37
2022/12/30 08:41:09;;;;;;;3.40;1.50;;;7.80;99.90;;;;;;5050393;28;20439;-38
2022/12/30 08:43:34;;;;;;;3.40;1.37;;;7.80;99.90;;;;;;5049891;28;20859;-39
2022/12/30 08:46:00;;;;;;;4.10;1.50;;;7.90;99.90;;;;;;5049934;28;20510;-40
2022/12/30 08:48:26;;;;;;;4.30;1.57;;;7.80;99.90;;;;;;5050071;28;20229;-40
2022/12/30 08:50:55;;;;;;;5.63;1.57;;;7.80;99.90;;;;;;5048887;28;20196;-39
2022/12/30 08:53:21;;;;;;;4.13;1.63;;;7.90;99.90;;;;;;5049401;28;20416;-40
2022/12/30 08:55:47;;;;;;;5.00;1.37;;;7.80;99.90;;;;;;5049035;28;20404;-39
2022/12/30 08:58:13;;;;;;;2.53;1.27;;;7.90;99.90;;;;;;5049835;28;20422;-38
2022/12/30 09:00:38;;;;;;;6.33;1.70;;;8.00;99.90;;;;;;5050289;28;20784;-35
2022/12/30 09:03:05;;;;;;;3.43;2.13;;;7.90;99.90;;;;;;5046367;28;20193;-37
2022/12/30 09:05:34;;;;;;;4.93;1.50;;;8.00;99.90;;;;;;5040136;28;20268;-38
2022/12/30 09:07:59;;;;;;;3.50;1.30;;;7.90;99.90;;;;;;5048051;28;20834;-37
2022/12/30 09:10:26;;;;;;;3.30;1.57;;;8.00;99.90;;;;;;5047983;28;20512;-38
2022/12/30 09:12:52;;;;;;;5.30;1.37;;;8.10;99.90;;;;;;5049613;28;20632;-37
2022/12/30 09:15:18;;;;;;;3.63;1.47;;;7.90;99.90;;;;;;5048900;28;20905;-38
2022/12/30 09:17:43;;;;;;;4.03;1.60;;;7.90;99.90;;;;;;5048286;28;20261;-37
2022/12/30 09:20:27;;;;;;;3.60;1.30;;;7.90;99.90;;;;;;5049299;28;20423;-37
2022/12/30 09:23:11;;;;;;;7.27;1.60;;;8.20;99.90;;;;;;5047277;28;20458;-34
2022/12/30 09:25:57;;;;;;;8.43;1.90;;;8.00;99.90;;;;;;5039767;28;20624;-36
2022/12/30 09:28:44;;;;;;;2.50;1.67;;;8.00;99.90;;;;;;5048926;28;20803;-40
2022/12/30 09:31:29;;;;;;;5.30;1.63;;;8.00;99.90;;;;;;5045257;28;20511;-40
2022/12/30 09:34:16;;;;;;;2.60;1.37;;;8.10;99.90;;;;;;5045361;28;20791;-37
2022/12/30 09:36:41;;;;;;;3.30;1.47;;;8.40;99.90;;;;;;5047486;28;20425;-38
2022/12/30 09:39:07;;;;;;;3.83;1.50;;;8.40;99.90;;;;;;5048942;28;20174;-39
2022/12/30 09:44:33;;;;;;;3.10;1.40;;;8.30;99.90;;;;;;5046979;28;20656;-39
2022/12/30 09:47:32;;;;;;;2.90;1.20;;;8.60;99.90;;;;;;5048483;28;20423;-39
2022/12/30 09:50:00;;;;;;;3.00;1.80;;;8.40;99.90;;;;;;5047503;28;20412;-39
2022/12/30 09:52:48;;;;;;;3.53;1.70;;;8.30;99.90;;;;;;5049027;28;20396;-38
2022/12/30 09:55:19;;;;;;;3.77;1.60;;;8.50;99.90;;;;;;5044628;28;20499;-37
2022/12/30 09:57:51;;;;;;;4.10;1.50;;;8.50;99.90;;;;;;5048951;28;20439;-40
2022/12/30 10:00:19;;;;;;;3.20;1.23;;;8.50;99.90;;;;;;5036266;28;20535;-38
2022/12/30 10:03:03;;;;;;;2.97;1.47;;;8.40;99.90;;;;;;5042396;28;20496;-37
2022/12/30 10:05:57;;;;;;;5.57;1.70;;;8.50;99.90;;;;;;5048449;28;20460;-39
2022/12/30 10:08:51;;;;;;;3.63;1.27;;;8.70;99.90;;;;;;5048703;28;20499;-40
2022/12/30 10:11:47;;;;;;;3.83;1.03;;;8.60;99.90;;;;;;5048567;28;20415;-41
2022/12/30 10:14:33;;;;;;;3.57;1.60;;;8.70;99.90;;;;;;5047737;28;20997;-38
2022/12/30 10:17:24;;;;;;;2.20;1.03;;;8.80;99.90;;;;;;5047903;28;20907;-39
2022/12/30 10:20:32;;;;;;;6.13;1.97;;;8.90;99.90;;;;;;5048326;28;20412;-39
2022/12/30 10:23:21;;;;;;;4.30;1.23;;;8.90;99.90;;;;;;5048312;28;20404;-41
2022/12/30 10:25:57;;;;;;;2.20;1.30;;;9.00;99.90;;;;;;5047307;28;20476;-39
2022/12/30 10:28:34;;;;;;;4.90;1.27;;;9.30;99.90;;;;;;5047828;28;20963;-38
2022/12/30 10:31:17;;;;;;;4.67;1.73;;;9.60;99.90;;;;;;5044807;28;20511;-37
2022/12/30 10:33:57;;;;;;;4.07;1.30;;;9.60;99.90;;;;;;5026746;28;20436;-40
2022/12/30 10:36:36;;;;;;;2.03;1.17;;;9.60;99.90;;;;;;5028535;28;20489;-35
2022/12/30 10:39:22;;;;;;;7.23;1.50;;;9.70;99.90;;;;;;5028007;28;20447;-38
2022/12/30 10:42:11;;;;;;;10.23;1.30;;;9.70;99.90;;;;;;5027835;28;20448;-40
2022/12/30 10:44:46;;;;;;;2.00;0.90;;;9.70;99.90;;;;;;5027527;28;20824;-40
2022/12/30 10:47:46;;;;;;;4.83;1.43;;;9.80;99.90;;;;;;5027836;28;20409;-38
2022/12/30 10:50:27;;;;;;;5.43;1.50;;;9.80;99.90;;;;;;5040070;28;20525;-39
2022/12/30 10:52:53;;;;;;;3.63;1.23;;;9.90;99.90;;;;;;5045991;28;20923;-35
2022/12/30 10:55:26;;;;;;;2.50;1.33;;;10.00;99.90;;;;;;5046333;28;20506;-37
2022/12/30 10:57:57;;;;;;;4.97;1.40;;;10.00;99.90;;;;;;5048000;28;20190;-40
2022/12/30 11:00:23;;;;;;;4.10;1.07;;;10.10;99.90;;;;;;5042707;28;20455;-34
2022/12/30 11:03:00;;;;;;;4.70;1.40;;;10.10;99.90;;;;;;5047806;28;20927;-39
2022/12/30 11:05:30;;;;;;;1.87;1.40;;;10.00;99.90;;;;;;5029295;28;20467;-37
2022/12/30 11:07:58;;;;;;;2.20;1.10;;;10.00;99.90;;;;;;5048009;28;20416;-35
2022/12/30 11:10:25;;;;;;;4.80;1.43;;;9.90;99.90;;;;;;5046319;28;20547;-38
2022/12/30 11:15:56;;;;;;;7.30;1.73;;;9.80;99.90;;;;;;5047862;28;20412;-39
2022/12/30 11:18:28;;;;;;;6.03;1.87;;;9.80;99.90;;;;;;5047590;28;20551;-37
2022/12/30 11:20:59;;;;;;;2.10;1.60;;;9.70;99.90;;;;;;5046561;28;20876;-40
2022/12/30 11:23:40;;;;;;;3.40;1.37;;;9.70;99.90;;;;;;5040284;28;20448;-35
2022/12/30 11:26:18;;;;;;;5.97;1.40;;;9.60;99.90;;;;;;5046796;28;20486;-38
2022/12/30 11:29:00;;;;;;;5.60;1.80;;;9.50;99.90;;;;;;5047695;28;20420;-37
2022/12/30 11:31:42;;;;;;;2.50;1.50;;;9.10;99.90;;;;;;5048109;28;20424;-39
2022/12/30 11:34:24;;;;;;;2.10;1.50;;;9.50;99.90;;;;;;5042133;28;20444;-37
2022/12/30 11:36:49;;;;;;;2.60;1.40;;;9.50;99.90;;;;;;5041355;28;20440;-38
2022/12/30 11:39:15;;;;;;;3.63;2.20;;;9.40;99.90;;;;;;5038856;28;20785;-40
2022/12/30 11:41:49;;;;;;;5.33;1.50;;;9.40;99.90;;;;;;5046666;28;20225;-40
2022/12/30 11:44:25;;;;;;;2.13;1.30;;;9.40;99.90;;;;;;5040966;28;20547;-40
2022/12/30 11:46:57;;;;;;;3.43;1.50;;;9.30;99.90;;;;;;5043944;28;20478;-39
2022/12/30 11:49:32;;;;;;;3.53;1.83;;;9.30;99.90;;;;;;5041372;28;20436;-36
2022/12/30 11:52:10;;;;;;;4.97;1.80;;;9.30;99.90;;;;;;5046122;28;20469;-40
2022/12/30 11:54:45;;;;;;;3.80;1.90;;;9.20;99.90;;;;;;5043984;28;20494;-37
2022/12/30 11:57:37;;;;;;;3.40;1.60;;;9.30;99.90;;;;;;5040203;28;20879;-37
2022/12/30 12:00:26;;;;;;;5.47;2.00;;;9.20;99.90;;;;;;5042264;28;20471;-40
2022/12/30 12:03:05;;;;;;;3.90;1.67;;;9.20;99.90;;;;;;5052021;28;20467;-41
2022/12/30 12:05:39;;;;;;;3.57;2.00;;;9.30;99.90;;;;;;5052238;28;20859;-40
2022/12/30 12:08:22;;;;;;;3.27;2.00;;;9.30;99.90;;;;;;5045300;28;20432;-37
2022/12/30 12:10:53;;;;;;;4.93;1.70;;;9.30;99.90;;;;;;5052428;28;20427;-39
2022/12/30 12:13:42;;;;;;;6.73;1.80;;;9.20;99.90;;;;;;5050640;28;20527;-38
2022/12/30 12:16:15;;;;;;;3.30;1.83;;;9.10;99.90;;;;;;5046450;28;20494;-37
2022/12/30 12:18:49;;;;;;;6.63;1.50;;;9.20;99.90;;;;;;5050861;28;20426;-40
2022/12/30 12:21:24;;;;;;;6.60;1.77;;;9.20;99.90;;;;;;5045043;28;20530;-40
2022/12/30 12:24:06;;;;;;;2.33;1.63;;;9.20;99.90;;;;;;5040341;28;20441;-39
2022/12/30 12:26:37;;;;;;;3.17;1.60;;;9.20;99.90;;;;;;5048291;28;21200;-39
2022/12/30 12:29:03;;;;;;;2.50;1.63;;;9.20;99.90;;;;;;5049926;28;20651;-38
2022/12/30 12:31:45;;;;;;;2.80;1.77;;;9.20;99.90;;;;;;5049204;28;20420;-40
2022/12/30 12:34:34;;;;;;;2.80;1.40;;;9.20;99.90;;;;;;5050367;28;20923;-37
2022/12/30 12:37:14;;;;;;;3.23;1.90;;;9.20;99.90;;;;;;5051833;28;20887;-40
2022/12/30 12:39:47;;;;;;;2.50;1.13;;;9.30;99.90;;;;;;5050396;28;20424;-40
2022/12/30 12:42:25;;;;;;;2.07;1.53;;;9.40;99.90;;;;;;5048690;28;20420;-38
2022/12/30 12:45:10;;;;;;;2.10;1.40;;;9.30;99.90;;;;;;5050517;28;20963;-41
2022/12/30 12:48:17;;;;;;;2.13;1.37;;;9.20;99.90;;;;;;5051481;28;20940;-39
2022/12/30 12:51:01;;;;;;;4.83;1.80;;;9.20;99.90;;;;;;5012464;28;20895;-36
2022/12/30 12:53:58;;;;;;;2.33;1.17;;;9.20;99.90;;;;;;5047350;28;21075;-37
2022/12/30 12:56:49;;;;;;;4.60;3.40;;;9.20;99.90;;;;;;5049923;28;20818;-40
2022/12/30 12:59:36;;;;;;;5.43;1.20;;;9.10;99.90;;;;;;5046274;28;20581;-38
2022/12/30 13:02:42;;;;;;;4.40;1.90;;;9.20;99.90;;;;;;5049889;28;20427;-37
2022/12/30 13:05:42;;;;;;;4.03;1.73;;;9.20;99.90;;;;;;5045546;28;20475;-37
2022/12/30 13:08:37;;;;;;;5.27;1.57;;;9.30;99.90;;;;;;5044795;28;20466;-37
2022/12/30 13:11:24;;;;;;;4.63;1.70;;;9.30;99.90;;;;;;5044378;28;20862;-39
2022/12/30 13:14:14;;;;;;;2.70;1.30;;;9.40;99.90;;;;;;5045746;28;20443;-36
2022/12/30 13:16:46;;;;;;;5.87;1.57;;;9.30;99.90;;;;;;5031609;28;20448;-38
2022/12/30 13:19:16;;;;;;;3.50;1.67;;;9.30;99.90;;;;;;5040765;28;20432;-38
2022/12/30 13:21:45;;;;;;;6.13;1.30;;;9.40;99.90;;;;;;5045922;28;20441;-35
2022/12/30 13:24:34;;;;;;;6.43;1.30;;;9.40;99.90;;;;;;5032005;28;20464;-36
2022/12/30 13:27:03;;;;;;;1.80;0.90;;;9.30;99.90;;;;;;5048216;28;20472;-32
2022/12/30 13:29:36;;;;;;;4.03;1.10;;;9.40;99.90;;;;;;5047338;28;20530;-37
2022/12/30 13:32:23;;;;;;;1.60;1.23;;;9.40;99.90;;;;;;5039388;28;20447;-39
2022/12/30 13:35:12;;;;;;;3.00;1.53;;;9.50;99.90;;;;;;5039098;28;20421;-39
2022/12/30 13:37:51;;;;;;;2.03;1.13;;;9.50;99.90;;;;;;5028981;28;20844;-34
2022/12/30 13:40:21;;;;;;;3.70;1.90;;;9.50;99.90;;;;;;5030551;28;20781;-35
2022/12/30 13:42:59;;;;;;;3.67;1.60;;;9.50;99.90;;;;;;5032126;28;20433;-39
2022/12/30 13:45:43;;;;;;;4.77;1.20;;;9.50;99.90;;;;;;5037432;28;20473;-39
2022/12/30 13:48:14;;;;;;;1.70;1.00;;;9.50;99.90;;;;;;5044925;28;20478;-38
2022/12/30 13:50:42;;;;;;;2.63;1.40;;;9.50;99.90;;;;;;5045292;28;20442;-38
2022/12/30 13:53:38;;;;;;;1.50;1.40;;;9.60;99.90;;;;;;5048213;28;20428;-37
2022/12/30 13:56:06;;;;;;;3.03;1.20;;;9.40;99.90;;;;;;5048305;28;20448;-40
2022/12/30 13:58:43;;;;;;;3.63;1.60;;;9.50;99.90;;;;;;5048822;28;20528;-39
2022/12/30 14:01:23;;;;;;;5.63;1.47;;;9.50;99.90;;;;;;5047139;28;20814;-39
2022/12/30 14:03:51;;;;;;;1.50;1.00;;;9.40;99.90;;;;;;5047930;28;21013;-41
2022/12/30 14:06:46;;;;;;;4.67;1.53;;;9.10;99.90;;;;;;5048394;28;20471;-39
2022/12/30 14:09:11;;;;;;;9.10;1.30;;;9.20;99.90;;;;;;5048450;28;20508;-38
2022/12/30 14:11:37;;;;;;;4.00;1.50;;;9.20;99.90;;;;;;5048511;28;20656;-40
2022/12/30 14:14:20;;;;;;;3.40;1.30;;;9.10;99.90;;;;;;5047748;28;20255;-39
2022/12/30 14:16:51;;;;;;;2.40;1.30;;;9.10;99.90;;;;;;5048595;28;20208;-38
2022/12/30 14:19:43;;;;;;;3.77;1.80;;;9.30;99.90;;;;;;5048036;28;20944;-36